createdAt,value
2022-09-29T00:00:28.623Z,7.55
2022-09-29T00:02:57.731Z,7.78
2022-09-29T00:05:28.221Z,7.00
2022-09-29T00:07:57.645Z,7.22
2022-09-29T00:10:27.072Z,7.63
2022-09-29T00:12:56.159Z,7.50
2022-09-29T00:15:25.251Z,8.05
2022-09-29T00:20:44.880Z,7.70
2022-09-29T00:23:13.785Z,8.38
2022-09-29T00:25:42.983Z,7.57
2022-09-29T00:28:12.036Z,8.23
2022-09-29T00:30:41.094Z,8.00
2022-09-29T00:33:10.225Z,9.38
2022-09-29T00:35:39.315Z,9.00
2022-09-29T00:38:11.489Z,8.48
2022-09-29T00:40:40.700Z,8.32
2022-09-29T00:43:17.036Z,8.32
2022-09-29T00:45:46.259Z,8.35
2022-09-29T00:48:22.200Z,8.50
2022-09-29T00:50:55.026Z,8.52
2022-09-29T00:53:27.626Z,9.27
2022-09-29T00:56:01.102Z,10.48
2022-09-29T00:58:33.527Z,11.63
2022-09-29T01:01:03.128Z,11.55
2022-09-29T01:03:37.387Z,11.57
2022-09-29T01:06:13.004Z,11.60
2022-09-29T01:08:48.560Z,11.18
2022-09-29T01:11:18.099Z,11.15
2022-09-29T01:13:48.651Z,12.88
2022-09-29T01:16:18.192Z,12.65
2022-09-29T01:18:48.981Z,11.57
2022-09-29T01:21:29.454Z,12.23
2022-09-29T01:24:26.494Z,10.93
2022-09-29T01:27:13.001Z,10.80
2022-09-29T01:30:09.938Z,11.18
2022-09-29T01:33:10.549Z,11.35
2022-09-29T01:35:50.507Z,10.60
2022-09-29T01:38:34.176Z,8.13
2022-09-29T01:41:11.911Z,7.50
2022-09-29T01:43:48.048Z,7.10
2022-09-29T01:46:23.651Z,6.45
2022-09-29T01:48:56.985Z,7.22
2022-09-29T01:51:31.560Z,6.40
2022-09-29T01:54:06.976Z,5.55
2022-09-29T01:59:17.125Z,5.55
2022-09-29T02:01:52.600Z,5.20
2022-09-29T02:04:28.449Z,5.05
2022-09-29T02:07:04.501Z,4.18
2022-09-29T02:09:38.136Z,5.78
2022-09-29T02:12:08.833Z,5.38
2022-09-29T02:14:43.485Z,4.38
2022-09-29T02:17:20.118Z,4.43
2022-09-29T02:19:53.423Z,4.10
2022-09-29T02:22:22.560Z,3.78
2022-09-29T02:24:56.690Z,4.45
2022-09-29T02:27:26.954Z,3.80
2022-09-29T02:29:56.274Z,3.60
2022-09-29T02:32:26.297Z,4.05
2022-09-29T02:34:57.958Z,3.60
2022-09-29T02:37:42.239Z,3.40
2022-09-29T02:40:26.928Z,3.78
2022-09-29T02:43:12.060Z,3.97
2022-09-29T02:45:53.201Z,4.57
2022-09-29T02:48:46.819Z,4.63
2022-09-29T02:51:23.508Z,3.65
2022-09-29T02:54:10.880Z,3.65
2022-09-29T02:56:47.138Z,4.82
2022-09-29T02:59:21.543Z,4.93
2022-09-29T03:01:52.381Z,4.97
2022-09-29T03:04:24.029Z,4.60
2022-09-29T03:06:55.411Z,4.25
2022-09-29T03:09:24.516Z,4.30
2022-09-29T03:11:53.617Z,4.68
2022-09-29T03:14:22.748Z,4.55
2022-09-29T03:16:52.147Z,5.13
2022-09-29T03:19:21.305Z,5.07
2022-09-29T03:21:50.878Z,4.35
2022-09-29T03:24:21.349Z,4.70
2022-09-29T03:26:50.571Z,5.00
2022-09-29T03:29:19.835Z,4.93
2022-09-29T03:31:49.093Z,4.93
2022-09-29T03:34:18.655Z,5.13
2022-09-29T03:36:47.890Z,5.68
2022-09-29T03:39:17.399Z,5.18
2022-09-29T03:41:51.038Z,5.68
2022-09-29T03:44:20.243Z,6.97
2022-09-29T03:46:49.277Z,7.60
2022-09-29T03:49:18.583Z,6.35
2022-09-29T03:51:48.286Z,7.95
2022-09-29T03:54:17.540Z,6.82
2022-09-29T03:56:48.175Z,6.90
2022-09-29T03:59:17.312Z,5.70
2022-09-29T04:01:46.586Z,5.90
2022-09-29T04:04:15.636Z,6.55
2022-09-29T04:06:45.246Z,5.63
2022-09-29T04:09:14.537Z,5.32
2022-09-29T04:11:43.764Z,4.55
2022-09-29T04:14:14.703Z,4.47
2022-09-29T04:16:43.786Z,4.28
2022-09-29T04:19:12.977Z,4.85
2022-09-29T04:21:42.062Z,4.93
2022-09-29T04:24:11.322Z,4.85
2022-09-29T04:26:41.035Z,4.38
2022-09-29T04:29:12.303Z,4.30
2022-09-29T04:31:43.175Z,4.38
2022-09-29T04:34:12.375Z,4.07
2022-09-29T04:36:42.285Z,4.28
2022-09-29T04:39:11.897Z,3.95
2022-09-29T04:41:41.641Z,3.88
2022-09-29T04:44:12.574Z,4.78
2022-09-29T04:46:43.483Z,4.15
2022-09-29T04:49:13.236Z,10.75
2022-09-29T04:51:42.690Z,4.60
2022-09-29T04:54:12.025Z,5.00
2022-09-29T04:56:41.319Z,5.13
2022-09-29T04:59:11.755Z,5.45
2022-09-29T05:01:42.469Z,6.50
2022-09-29T05:04:13.781Z,4.95
2022-09-29T05:06:43.360Z,5.68
2022-09-29T05:09:13.581Z,5.78
2022-09-29T05:11:42.784Z,5.85
2022-09-29T05:14:13.498Z,5.63
2022-09-29T05:16:44.495Z,5.13
2022-09-29T05:19:13.958Z,5.63
2022-09-29T05:21:43.319Z,5.60
2022-09-29T05:24:12.743Z,5.57
2022-09-29T05:26:44.548Z,4.75
2022-09-29T05:29:14.855Z,5.03
2022-09-29T05:31:45.935Z,4.60
2022-09-29T05:34:15.611Z,4.38
2022-09-29T05:36:45.328Z,5.13
2022-09-29T05:39:14.791Z,5.28
2022-09-29T05:41:44.205Z,5.10
2022-09-29T05:44:13.687Z,4.95
2022-09-29T05:46:43.746Z,4.70
2022-09-29T05:49:15.221Z,4.13
2022-09-29T05:51:44.526Z,4.50
2022-09-29T05:54:15.260Z,4.97
2022-09-29T05:56:45.440Z,4.13
2022-09-29T05:59:15.476Z,3.70
2022-09-29T06:01:45.654Z,4.55
2022-09-29T06:04:20.283Z,3.58
2022-09-29T06:06:53.337Z,3.60
2022-09-29T06:09:22.751Z,3.65
2022-09-29T06:11:52.052Z,3.50
2022-09-29T06:14:22.122Z,4.30
2022-09-29T06:16:51.538Z,3.83
2022-09-29T06:19:22.535Z,4.03
2022-09-29T06:21:52.086Z,3.63
2022-09-29T06:24:21.312Z,3.33
2022-09-29T06:26:51.640Z,3.53
2022-09-29T06:29:20.943Z,2.97
2022-09-29T06:31:50.694Z,3.38
2022-09-29T06:34:22.161Z,3.83
2022-09-29T06:37:05.041Z,3.45
2022-09-29T06:39:34.237Z,4.22
2022-09-29T06:42:03.342Z,3.50
2022-09-29T06:44:32.998Z,3.70
2022-09-29T06:47:02.310Z,3.67
2022-09-29T06:49:33.370Z,3.50
2022-09-29T06:52:16.098Z,3.60
2022-09-29T06:54:49.057Z,3.92
2022-09-29T06:57:19.110Z,4.00
2022-09-29T06:59:48.444Z,4.43
2022-09-29T07:02:18.832Z,4.07
2022-09-29T07:04:49.770Z,4.40
2022-09-29T07:07:18.944Z,4.75
2022-09-29T07:09:48.575Z,4.93
2022-09-29T07:12:18.545Z,5.03
2022-09-29T07:14:47.658Z,5.82
2022-09-29T07:17:18.058Z,5.63
2022-09-29T07:19:47.182Z,5.78
2022-09-29T07:22:17.812Z,5.45
2022-09-29T07:24:47.995Z,5.38
2022-09-29T07:27:24.458Z,3.88
2022-09-29T07:30:03.011Z,4.18
2022-09-29T07:32:35.362Z,3.92
2022-09-29T07:35:05.660Z,3.72
2022-09-29T07:37:36.477Z,4.38
2022-09-29T07:40:06.535Z,4.18
2022-09-29T07:42:35.584Z,3.53
2022-09-29T07:45:04.775Z,3.80
2022-09-29T07:47:34.167Z,3.80
2022-09-29T07:50:03.248Z,3.38
2022-09-29T07:52:32.866Z,3.08
2022-09-29T07:55:03.960Z,4.32
2022-09-29T07:57:33.204Z,3.15
2022-09-29T08:00:04.426Z,3.40
2022-09-29T08:02:41.577Z,3.20
2022-09-29T08:05:11.356Z,3.30
2022-09-29T08:07:40.847Z,3.83
2022-09-29T08:10:17.426Z,3.20
2022-09-29T08:12:46.745Z,3.50
2022-09-29T08:15:17.661Z,3.55
2022-09-29T08:17:48.366Z,3.00
2022-09-29T08:20:18.565Z,3.25
2022-09-29T08:22:48.400Z,3.63
2022-09-29T08:25:55.678Z,4.15
2022-09-29T08:28:31.694Z,3.72
2022-09-29T08:31:04.824Z,3.55
2022-09-29T08:33:35.101Z,3.53
2022-09-29T08:36:14.612Z,3.83
2022-09-29T08:38:45.082Z,4.07
2022-09-29T08:41:36.076Z,3.78
2022-09-29T08:44:26.390Z,4.93
2022-09-29T08:47:09.865Z,3.90
2022-09-29T08:49:43.494Z,5.72
2022-09-29T08:52:17.495Z,4.88
2022-09-29T08:54:49.873Z,5.10
2022-09-29T08:57:21.499Z,4.63
2022-09-29T08:59:56.021Z,4.57
2022-09-29T09:02:57.460Z,5.07
2022-09-29T09:05:56.098Z,5.40
2022-09-29T09:08:42.912Z,5.18
2022-09-29T09:11:27.335Z,5.30
2022-09-29T09:14:12.648Z,6.78
2022-09-29T09:16:55.982Z,5.53
2022-09-29T09:19:40.851Z,5.63
2022-09-29T09:22:22.273Z,6.32
2022-09-29T09:24:58.561Z,5.88
2022-09-29T09:27:31.553Z,8.40
2022-09-29T09:30:08.197Z,6.72
2022-09-29T09:32:46.495Z,8.18
2022-09-29T09:35:32.554Z,6.10
2022-09-29T09:38:05.934Z,6.60
2022-09-29T09:40:51.765Z,6.70
2022-09-29T09:43:26.397Z,6.18
2022-09-29T09:46:05.159Z,6.88
2022-09-29T09:48:38.161Z,7.43
2022-09-29T09:51:31.069Z,7.10
2022-09-29T09:54:05.234Z,6.00
2022-09-29T09:56:51.580Z,6.72
2022-09-29T09:59:34.609Z,6.82
2022-09-29T10:02:05.719Z,6.85
2022-09-29T10:04:36.389Z,6.55
2022-09-29T10:07:06.379Z,6.57
2022-09-29T10:09:36.503Z,6.05
2022-09-29T10:12:13.921Z,7.43
2022-09-29T10:14:53.016Z,6.95
2022-09-29T10:17:28.874Z,6.93
2022-09-29T10:20:00.813Z,7.05
2022-09-29T10:22:33.986Z,6.85
2022-09-29T10:25:18.996Z,7.22
2022-09-29T10:27:51.023Z,7.05
2022-09-29T10:30:22.696Z,7.13
2022-09-29T10:32:59.822Z,7.82
2022-09-29T10:35:35.013Z,7.35
2022-09-29T10:40:36.677Z,6.95
2022-09-29T10:43:25.186Z,8.02
2022-09-29T10:45:58.785Z,7.00
2022-09-29T10:48:29.665Z,8.13
2022-09-29T10:53:38.269Z,8.05
2022-09-29T10:56:17.773Z,8.90
2022-09-29T10:59:01.760Z,7.28
2022-09-29T11:01:45.533Z,8.50
2022-09-29T11:04:21.200Z,7.38
2022-09-29T11:06:51.796Z,8.35
2022-09-29T11:09:33.033Z,7.95
2022-09-29T11:12:07.380Z,7.70
2022-09-29T11:14:44.300Z,7.65
2022-09-29T11:17:24.785Z,7.47
2022-09-29T11:19:58.876Z,7.95
2022-09-29T11:23:02.020Z,7.93
2022-09-29T11:25:58.286Z,7.10
2022-09-29T11:28:45.257Z,7.65
2022-09-29T11:31:30.586Z,8.35
2022-09-29T11:34:17.465Z,7.32
2022-09-29T11:36:54.578Z,7.32
2022-09-29T11:39:39.181Z,7.78
2022-09-29T11:42:24.263Z,7.53
2022-09-29T11:45:04.234Z,7.75
2022-09-29T11:48:05.303Z,7.60
2022-09-29T11:50:46.269Z,7.45
2022-09-29T11:53:33.769Z,7.53
2022-09-29T11:56:23.049Z,7.70
2022-09-29T11:59:19.945Z,7.55
2022-09-29T12:02:07.433Z,8.30
2022-09-29T12:04:52.925Z,8.95
2022-09-29T12:07:35.437Z,9.13
2022-09-29T12:10:27.265Z,8.00
2022-09-29T12:13:08.415Z,7.93
2022-09-29T12:15:48.983Z,9.18
2022-09-29T12:18:23.976Z,8.48
2022-09-29T12:20:58.510Z,7.80
2022-09-29T12:23:31.316Z,8.45
2022-09-29T12:26:07.478Z,26.95
2022-09-29T12:28:47.855Z,10.30
2022-09-29T12:31:22.651Z,8.15
2022-09-29T12:33:55.546Z,7.90
2022-09-29T12:36:50.379Z,8.07
2022-09-29T12:39:33.382Z,9.20
2022-09-29T12:42:22.786Z,7.43
2022-09-29T12:44:59.434Z,7.18
2022-09-29T12:47:39.939Z,7.93
2022-09-29T12:50:16.955Z,8.23
2022-09-29T12:52:55.444Z,7.05
2022-09-29T12:55:40.054Z,7.85
2022-09-29T12:58:16.665Z,7.35
2022-09-29T13:00:52.635Z,8.02
2022-09-29T13:03:56.459Z,7.10
2022-09-29T13:07:00.630Z,10.65
2022-09-29T13:09:45.239Z,7.97
2022-09-29T13:12:34.980Z,8.07
2022-09-29T13:15:26.601Z,7.47
2022-09-29T13:18:17.528Z,7.30
2022-09-29T13:21:05.351Z,7.40
2022-09-29T13:23:49.908Z,7.30
2022-09-29T13:26:37.414Z,9.68
2022-09-29T13:29:19.607Z,7.57
2022-09-29T13:31:52.379Z,7.85
2022-09-29T13:34:33.001Z,8.60
2022-09-29T13:37:25.096Z,7.97
2022-09-29T13:40:02.606Z,7.93
2022-09-29T13:42:43.586Z,7.75
2022-09-29T13:45:44.997Z,8.85
2022-09-29T13:48:38.650Z,8.00
2022-09-29T13:51:43.128Z,8.90
2022-09-29T13:54:25.002Z,8.00
2022-09-29T13:57:16.356Z,15.43
2022-09-29T13:59:48.483Z,6.95
2022-09-29T14:02:29.676Z,7.07
2022-09-29T14:05:05.952Z,7.40
2022-09-29T14:07:47.444Z,7.60
2022-09-29T14:10:24.657Z,8.23
2022-09-29T14:13:03.647Z,7.13
2022-09-29T14:16:06.707Z,7.18
2022-09-29T14:18:42.360Z,7.93
2022-09-29T14:21:34.433Z,7.35
2022-09-29T14:24:44.707Z,7.93
2022-09-29T14:27:29.910Z,6.93
2022-09-29T14:30:15.916Z,7.13
2022-09-29T14:32:53.699Z,7.35
2022-09-29T14:35:29.507Z,7.28
2022-09-29T14:38:05.195Z,6.90
2022-09-29T14:40:37.624Z,6.95
2022-09-29T14:43:17.294Z,7.68
2022-09-29T14:46:20.899Z,7.47
2022-09-29T14:49:22.030Z,7.75
2022-09-29T14:52:01.516Z,6.55
2022-09-29T14:54:53.381Z,6.60
2022-09-29T14:58:08.612Z,7.20
2022-09-29T15:00:54.268Z,7.18
2022-09-29T15:03:35.244Z,7.50
2022-09-29T15:06:07.613Z,8.77
2022-09-29T15:08:40.348Z,14.52
2022-09-29T15:11:38.186Z,7.20
2022-09-29T15:14:24.697Z,7.75
2022-09-29T15:17:07.767Z,7.55
2022-09-29T15:19:56.444Z,8.18
2022-09-29T15:22:54.958Z,7.47
2022-09-29T15:25:43.346Z,8.40
2022-09-29T15:28:31.625Z,7.82
2022-09-29T15:31:05.447Z,9.38
2022-09-29T15:33:38.893Z,8.50
2022-09-29T15:36:15.280Z,8.65
2022-09-29T15:38:44.639Z,8.68
2022-09-29T15:41:18.904Z,7.10
2022-09-29T15:43:57.313Z,7.28
2022-09-29T15:46:28.267Z,8.23
2022-09-29T15:49:21.469Z,9.15
2022-09-29T15:52:00.539Z,8.73
2022-09-29T15:54:40.449Z,7.57
2022-09-29T15:57:53.066Z,8.95
2022-09-29T16:00:46.033Z,7.88
2022-09-29T16:03:24.235Z,7.25
2022-09-29T16:06:31.026Z,8.68
2022-09-29T16:09:09.193Z,7.13
2022-09-29T16:12:18.649Z,8.90
2022-09-29T16:14:55.812Z,8.75
2022-09-29T16:17:27.380Z,8.90
2022-09-29T16:20:01.809Z,8.70
2022-09-29T16:22:33.534Z,8.50
2022-09-29T16:25:20.267Z,8.73
2022-09-29T16:27:56.467Z,10.35
2022-09-29T16:30:30.026Z,8.88
2022-09-29T16:33:14.186Z,8.90
2022-09-29T16:36:04.106Z,9.18
2022-09-29T16:38:39.010Z,8.68
2022-09-29T16:41:13.867Z,8.57
2022-09-29T16:43:45.316Z,10.80
2022-09-29T16:46:22.321Z,14.77
2022-09-29T16:48:54.006Z,10.67
2022-09-29T16:51:38.538Z,11.27
2022-09-29T16:54:17.631Z,9.85
2022-09-29T16:56:50.761Z,9.98
2022-09-29T16:59:21.177Z,10.40
2022-09-29T17:01:52.704Z,9.40
2022-09-29T17:04:23.962Z,11.07
2022-09-29T17:06:53.897Z,10.20
2022-09-29T17:09:27.384Z,9.77
2022-09-29T17:12:00.352Z,11.50
2022-09-29T17:14:35.697Z,11.60
2022-09-29T17:17:18.312Z,9.82
2022-09-29T17:19:51.092Z,9.90
2022-09-29T17:22:28.763Z,11.95
2022-09-29T17:25:03.242Z,12.18
2022-09-29T17:27:50.646Z,11.70
2022-09-29T17:30:25.863Z,12.20
2022-09-29T17:35:32.323Z,10.98
2022-09-29T17:38:03.089Z,10.77
2022-09-29T17:40:38.199Z,10.45
2022-09-29T17:43:07.878Z,11.73
2022-09-29T17:45:42.089Z,12.80
2022-09-29T17:48:14.692Z,13.10
2022-09-29T17:50:58.362Z,11.65
2022-09-29T17:53:40.122Z,12.10
2022-09-29T17:56:23.838Z,11.88
2022-09-29T17:59:06.257Z,11.68
2022-09-29T18:01:38.692Z,11.15
2022-09-29T18:04:09.684Z,10.52
2022-09-29T18:06:42.549Z,12.68
2022-09-29T18:09:22.223Z,11.93
2022-09-29T18:11:54.236Z,12.68
2022-09-29T18:14:26.253Z,12.45
2022-09-29T18:16:57.018Z,13.63
2022-09-29T18:19:29.153Z,12.85
2022-09-29T18:22:11.475Z,14.90
2022-09-29T18:24:45.319Z,12.95
2022-09-29T18:27:18.148Z,13.23
2022-09-29T18:29:48.875Z,12.30
2022-09-29T18:32:34.971Z,11.80
2022-09-29T18:35:14.639Z,12.13
2022-09-29T18:40:19.316Z,12.35
2022-09-29T18:42:51.504Z,11.07
2022-09-29T18:45:25.220Z,12.35
2022-09-29T18:47:58.784Z,12.23
2022-09-29T18:50:30.137Z,12.23
2022-09-29T18:53:03.607Z,12.38
2022-09-29T18:55:34.222Z,10.70
2022-09-29T18:58:04.449Z,12.00
2022-09-29T19:00:40.710Z,11.20
2022-09-29T19:03:10.523Z,12.02
2022-09-29T19:05:44.240Z,12.10
2022-09-29T19:08:17.522Z,13.18
2022-09-29T19:10:51.594Z,12.70
2022-09-29T19:13:22.476Z,13.05
2022-09-29T19:15:57.081Z,12.82
2022-09-29T19:18:27.539Z,12.68
2022-09-29T19:20:59.928Z,13.02
2022-09-29T19:23:34.596Z,12.30
2022-09-29T19:26:11.683Z,12.40
2022-09-29T19:28:46.435Z,12.75
2022-09-29T19:31:20.626Z,12.25
2022-09-29T19:33:52.230Z,11.70
2022-09-29T19:36:23.665Z,12.70
2022-09-29T19:38:55.005Z,11.60
2022-09-29T19:41:26.512Z,12.18
2022-09-29T19:44:00.086Z,11.88
2022-09-29T19:46:31.189Z,14.77
2022-09-29T19:49:01.223Z,14.20
2022-09-29T19:51:48.202Z,12.35
2022-09-29T19:54:22.433Z,11.93
2022-09-29T19:56:54.799Z,12.60
2022-09-29T19:59:27.614Z,12.02
2022-09-29T20:01:58.539Z,13.10
2022-09-29T20:08:37.901Z,12.38
2022-09-29T20:11:11.096Z,12.10
2022-09-29T20:13:43.980Z,12.70
2022-09-29T20:16:16.417Z,12.55
2022-09-29T20:18:49.043Z,13.20
2022-09-29T20:21:18.932Z,11.50
2022-09-29T20:23:49.422Z,12.27
2022-09-29T20:26:20.883Z,12.50
2022-09-29T20:28:54.230Z,12.30
2022-09-29T20:31:24.674Z,11.30
2022-09-29T20:33:54.781Z,11.75
2022-09-29T20:36:24.471Z,11.68
2022-09-29T20:38:59.905Z,10.70
2022-09-29T20:48:10.708Z,11.43
2022-09-29T20:50:42.159Z,11.88
2022-09-29T20:53:11.503Z,12.35
2022-09-29T20:55:41.521Z,12.27
2022-09-29T20:58:19.348Z,11.00
2022-09-29T21:00:50.674Z,11.20
2022-09-29T21:03:42.771Z,11.40
2022-09-29T21:06:11.020Z,11.02
2022-09-29T21:08:41.669Z,12.43
2022-09-29T21:11:10.868Z,10.48
2022-09-29T21:13:41.457Z,10.60
2022-09-29T21:16:10.466Z,10.65
2022-09-29T21:18:40.022Z,10.50
2022-09-29T21:21:15.001Z,10.90
2022-09-29T21:23:46.953Z,11.00
2022-09-29T21:26:21.237Z,11.32
2022-09-29T21:28:57.029Z,11.18
2022-09-29T21:31:28.743Z,10.25
2022-09-29T21:34:03.892Z,10.38
2022-09-29T21:36:37.202Z,8.98
2022-09-29T21:39:08.853Z,9.73
2022-09-29T21:41:42.457Z,9.20
2022-09-29T21:44:16.599Z,10.50
2022-09-29T21:46:49.352Z,10.02
2022-09-29T21:49:19.621Z,9.27
2022-09-29T21:51:52.641Z,9.70
2022-09-29T21:54:26.352Z,10.20
2022-09-29T21:56:57.827Z,10.40
2022-09-29T21:59:30.088Z,10.00
2022-09-29T22:02:01.647Z,9.70
2022-09-29T22:04:32.375Z,10.52
2022-09-29T22:07:02.249Z,9.77
2022-09-29T22:09:33.463Z,10.23
2022-09-29T22:12:03.885Z,10.38
2022-09-29T22:15:29.188Z,10.30
2022-09-29T22:19:23.040Z,9.38
2022-09-29T22:21:57.076Z,9.25
2022-09-29T22:24:30.741Z,9.35
2022-09-29T22:26:59.735Z,8.77
2022-09-29T22:29:28.931Z,9.50
2022-09-29T22:31:57.863Z,8.68
2022-09-29T22:34:27.298Z,9.00
2022-09-29T22:36:58.073Z,9.43
2022-09-29T22:39:26.962Z,9.30
2022-09-29T22:42:01.264Z,9.05
2022-09-29T22:44:30.318Z,8.93
2022-09-29T22:46:59.444Z,9.40
2022-09-29T22:49:28.373Z,8.05
2022-09-29T22:51:59.301Z,8.18
2022-09-29T22:54:28.164Z,8.77
2022-09-29T22:56:57.082Z,8.80
2022-09-29T22:59:26.423Z,7.57
2022-09-29T23:01:56.675Z,8.38
2022-09-29T23:04:26.355Z,8.27
2022-09-29T23:06:55.564Z,8.82
2022-09-29T23:09:26.126Z,9.20
2022-09-29T23:11:56.025Z,8.68
2022-09-29T23:14:25.077Z,8.13
2022-09-29T23:16:54.362Z,8.40
2022-09-29T23:19:23.932Z,7.45
2022-09-29T23:21:53.329Z,8.20
2022-09-29T23:24:24.278Z,7.90
2022-09-29T23:26:55.416Z,8.88
2022-09-29T23:29:25.126Z,8.35
2022-09-29T23:31:54.435Z,8.00
2022-09-29T23:34:23.855Z,9.05
2022-09-29T23:36:53.215Z,7.82
2022-09-29T23:39:22.399Z,7.82
2022-09-29T23:41:53.839Z,8.98
2022-09-29T23:44:27.017Z,8.45
2022-09-29T23:46:57.266Z,7.70
2022-09-29T23:49:30.511Z,7.65
2022-09-29T23:52:02.390Z,8.40
2022-09-29T23:54:31.887Z,8.38
2022-09-29T23:57:01.317Z,8.88
2022-09-29T23:59:32.254Z,9.10
